METAR Formatted Surface Weather Observation
Issued by NWS

Home | Current Version | Previous Version | Text Only | Print | Product List | Glossary On
Versions: 1 2 3 4 5 6 7
000
SAUS46 KMTR 242353
MTRBAN
METAR KBAN 242352Z AUTO 25008KT CLR 19/M11 A3009 RMK AO2 SLP070
T01941106 10228 20194 55005 $



USA.gov is the U.S. government's official web portal to all federal, state and local government web resources and services.